createdAt,value
2019-02-16T00:00:35.927Z,8.30
2019-02-16T00:01:39.478Z,7.60
2019-02-16T00:02:43.072Z,7.70
2019-02-16T00:03:46.568Z,7.83
2019-02-16T00:04:50.061Z,7.90
2019-02-16T00:05:53.643Z,7.80
2019-02-16T00:06:57.196Z,7.83
2019-02-16T00:08:00.732Z,7.80
2019-02-16T00:09:04.749Z,8.23
2019-02-16T00:10:08.613Z,7.63
2019-02-16T00:11:12.147Z,8.40
2019-02-16T00:12:15.685Z,8.07
2019-02-16T00:13:19.291Z,8.03
2019-02-16T00:14:22.867Z,7.70
2019-02-16T00:15:26.346Z,8.03
2019-02-16T00:16:29.959Z,8.80
2019-02-16T00:17:33.632Z,8.00
2019-02-16T00:18:37.186Z,7.67
2019-02-16T00:19:40.701Z,7.93
2019-02-16T00:20:44.202Z,8.50
2019-02-16T00:21:47.789Z,8.40
2019-02-16T00:22:51.580Z,7.90
2019-02-16T00:23:55.052Z,7.40
2019-02-16T00:24:58.575Z,7.67
2019-02-16T00:26:02.162Z,8.17
2019-02-16T00:27:05.743Z,7.00
2019-02-16T00:28:09.327Z,7.87
2019-02-16T00:29:14.432Z,8.40
2019-02-16T00:30:17.979Z,7.17
2019-02-16T00:31:21.491Z,8.30
2019-02-16T00:32:25.076Z,7.37
2019-02-16T00:33:28.594Z,7.57
2019-02-16T00:34:32.095Z,7.53
2019-02-16T00:35:35.589Z,8.23
2019-02-16T00:36:39.122Z,7.20
2019-02-16T00:37:42.646Z,7.77
2019-02-16T00:38:46.194Z,7.20
2019-02-16T00:39:49.765Z,7.07
2019-02-16T00:40:53.248Z,7.40
2019-02-16T00:41:56.919Z,7.00
2019-02-16T00:43:00.435Z,6.43
2019-02-16T00:44:03.986Z,6.90
2019-02-16T00:45:07.835Z,6.77
2019-02-16T00:46:11.442Z,7.30
2019-02-16T00:47:14.957Z,7.63
2019-02-16T00:48:18.482Z,6.80
2019-02-16T00:49:22.066Z,7.20
2019-02-16T00:50:25.594Z,6.50
2019-02-16T00:51:29.079Z,7.70
2019-02-16T00:52:32.612Z,7.30
2019-02-16T00:53:36.117Z,7.40
2019-02-16T00:54:39.602Z,6.97
2019-02-16T00:55:43.231Z,6.90
2019-02-16T00:56:46.747Z,7.03
2019-02-16T00:57:50.337Z,7.47
2019-02-16T00:58:53.908Z,6.10
2019-02-16T00:59:57.411Z,6.73
2019-02-16T01:01:00.916Z,6.97
2019-02-16T01:02:04.486Z,7.33
2019-02-16T01:03:08.046Z,6.57
2019-02-16T01:04:11.633Z,6.53
2019-02-16T01:05:15.213Z,7.50
2019-02-16T01:06:18.710Z,6.10
2019-02-16T01:07:22.299Z,7.30
2019-02-16T01:08:25.871Z,6.77
2019-02-16T01:09:29.479Z,7.40
2019-02-16T01:10:32.987Z,7.90
2019-02-16T01:11:36.486Z,6.23
2019-02-16T01:12:40.061Z,6.57
2019-02-16T01:13:43.589Z,6.13
2019-02-16T01:14:47.154Z,6.73
2019-02-16T01:15:50.653Z,6.70
2019-02-16T01:16:54.300Z,7.07
2019-02-16T01:17:57.781Z,6.00
2019-02-16T01:19:01.314Z,6.63
2019-02-16T01:20:07.071Z,6.13
2019-02-16T01:21:12.112Z,6.93
2019-02-16T01:22:15.675Z,6.30
2019-02-16T01:23:19.161Z,6.17
2019-02-16T01:24:22.699Z,6.90
2019-02-16T01:25:26.210Z,5.80
2019-02-16T01:26:29.781Z,6.60
2019-02-16T01:27:33.356Z,6.63
2019-02-16T01:28:36.845Z,7.57
2019-02-16T01:29:40.360Z,6.07
2019-02-16T01:30:43.918Z,7.20
2019-02-16T01:31:47.475Z,6.33
2019-02-16T01:32:51.031Z,6.00
2019-02-16T01:33:54.592Z,6.03
2019-02-16T01:34:58.177Z,6.50
2019-02-16T01:36:01.744Z,6.50
2019-02-16T01:37:05.518Z,6.70
2019-02-16T01:38:09.084Z,6.97
2019-02-16T01:39:12.726Z,6.20
2019-02-16T01:40:16.355Z,6.23
2019-02-16T01:41:19.984Z,7.07
2019-02-16T01:42:23.631Z,6.17
2019-02-16T01:43:27.277Z,6.43
2019-02-16T01:44:30.928Z,6.50
2019-02-16T01:45:34.673Z,6.27
2019-02-16T01:46:38.295Z,6.80
2019-02-16T01:47:41.885Z,6.47
2019-02-16T01:48:45.514Z,5.90
2019-02-16T01:49:49.007Z,6.60
2019-02-16T01:50:52.622Z,6.17
2019-02-16T01:51:56.109Z,6.60
2019-02-16T01:52:59.652Z,6.77
2019-02-16T01:54:03.261Z,6.27
2019-02-16T01:55:08.731Z,5.70
2019-02-16T01:56:12.305Z,6.50
2019-02-16T01:57:15.871Z,6.37
2019-02-16T01:58:19.500Z,5.90
2019-02-16T01:59:23.059Z,6.27
2019-02-16T02:00:26.742Z,6.83
2019-02-16T02:01:30.333Z,6.73
2019-02-16T02:02:34.023Z,5.97
2019-02-16T02:03:37.659Z,5.77
2019-02-16T02:04:41.260Z,5.00
2019-02-16T02:05:44.883Z,5.90
2019-02-16T02:06:48.503Z,5.37
2019-02-16T02:07:52.133Z,5.30
2019-02-16T02:08:55.687Z,6.20
2019-02-16T02:09:59.387Z,5.93
2019-02-16T02:11:04.514Z,5.77
2019-02-16T02:12:08.615Z,5.60
2019-02-16T02:13:12.161Z,5.50
2019-02-16T02:14:15.839Z,5.57
2019-02-16T02:15:19.428Z,6.00
2019-02-16T02:16:23.123Z,5.10
2019-02-16T02:17:26.773Z,6.37
2019-02-16T02:18:30.315Z,5.10
2019-02-16T02:19:33.875Z,5.60
2019-02-16T02:20:37.424Z,6.13
2019-02-16T02:21:41.588Z,5.57
2019-02-16T02:22:45.215Z,5.30
2019-02-16T02:23:48.779Z,5.63
2019-02-16T02:24:52.603Z,5.73
2019-02-16T02:25:56.228Z,5.70
2019-02-16T02:26:59.867Z,5.97
2019-02-16T02:28:03.498Z,5.70
2019-02-16T02:29:07.149Z,5.80
2019-02-16T02:30:11.230Z,5.27
2019-02-16T02:31:14.832Z,5.03
2019-02-16T02:32:18.531Z,5.80
2019-02-16T02:33:22.170Z,5.20
2019-02-16T02:34:25.826Z,5.83
2019-02-16T02:35:29.417Z,5.80
2019-02-16T02:36:33.030Z,5.60
2019-02-16T02:37:36.640Z,5.33
2019-02-16T02:38:40.209Z,5.50
2019-02-16T02:39:43.843Z,5.63
2019-02-16T02:40:47.400Z,5.13
2019-02-16T02:41:51.021Z,5.03
2019-02-16T02:42:54.576Z,5.10
2019-02-16T02:43:58.150Z,5.60
2019-02-16T02:45:01.702Z,5.80
2019-02-16T02:46:05.262Z,5.30
2019-02-16T02:47:08.794Z,5.50
2019-02-16T02:48:12.353Z,5.90
2019-02-16T02:49:15.910Z,4.67
2019-02-16T02:50:19.460Z,5.67
2019-02-16T02:51:23.024Z,5.00
2019-02-16T02:52:26.672Z,5.30
2019-02-16T02:53:31.450Z,5.03
2019-02-16T02:54:35.467Z,5.53
2019-02-16T02:55:39.032Z,5.33
2019-02-16T02:56:42.594Z,5.17
2019-02-16T02:57:46.187Z,4.57
2019-02-16T02:58:49.809Z,5.50
2019-02-16T02:59:53.443Z,5.00
2019-02-16T03:00:57.048Z,4.57
2019-02-16T03:02:00.675Z,5.93
2019-02-16T03:03:04.336Z,5.03
2019-02-16T03:04:07.908Z,4.63
2019-02-16T03:05:11.728Z,5.33
2019-02-16T03:06:15.335Z,5.20
2019-02-16T03:07:18.931Z,6.13
2019-02-16T03:08:22.610Z,5.10
2019-02-16T03:09:26.132Z,5.43
2019-02-16T03:10:29.719Z,4.93
2019-02-16T03:11:33.390Z,5.10
2019-02-16T03:12:36.921Z,5.13
2019-02-16T03:13:40.559Z,5.30
2019-02-16T03:14:44.113Z,4.90
2019-02-16T03:15:47.684Z,4.97
2019-02-16T03:16:51.352Z,4.80
2019-02-16T03:17:54.943Z,4.83
2019-02-16T03:18:58.534Z,4.80
2019-02-16T03:20:02.120Z,5.20
2019-02-16T03:21:05.809Z,5.27
2019-02-16T03:22:09.477Z,5.13
2019-02-16T03:23:20.257Z,4.83
2019-02-16T03:24:23.884Z,4.60
2019-02-16T03:25:27.447Z,4.93
2019-02-16T03:26:34.048Z,5.60
2019-02-16T03:27:49.829Z,5.20
2019-02-16T03:28:59.427Z,4.17
2019-02-16T03:30:25.236Z,4.90
2019-02-16T03:31:52.957Z,4.93
2019-02-16T03:33:02.506Z,4.93
2019-02-16T03:34:15.204Z,4.93
2019-02-16T03:35:40.232Z,5.27
2019-02-16T03:37:21.383Z,5.33
2019-02-16T03:38:45.679Z,6.57
2019-02-16T03:39:49.363Z,5.87
2019-02-16T03:40:52.911Z,5.87
2019-02-16T03:41:56.646Z,5.23
2019-02-16T03:43:00.214Z,5.67
2019-02-16T03:44:03.827Z,5.30
2019-02-16T03:45:07.964Z,5.83
2019-02-16T03:46:11.555Z,6.23
2019-02-16T03:47:15.222Z,6.30
2019-02-16T03:48:18.917Z,6.03
2019-02-16T03:49:22.450Z,6.10
2019-02-16T03:50:26.196Z,6.20
2019-02-16T03:51:29.840Z,6.00
2019-02-16T03:52:33.564Z,6.53
2019-02-16T03:53:37.379Z,6.10
2019-02-16T03:54:40.907Z,5.60
2019-02-16T03:55:44.467Z,5.93
2019-02-16T03:56:48.155Z,5.53
2019-02-16T03:57:51.731Z,5.67
2019-02-16T03:58:55.523Z,5.20
2019-02-16T03:59:59.070Z,5.57
2019-02-16T04:01:02.821Z,5.60
2019-02-16T04:02:06.607Z,6.03
2019-02-16T04:03:10.226Z,5.23
2019-02-16T04:04:13.935Z,5.60
2019-02-16T04:05:17.510Z,5.80
2019-02-16T04:06:21.105Z,5.13
2019-02-16T04:07:24.695Z,5.43
2019-02-16T04:08:28.251Z,5.30
2019-02-16T04:09:31.812Z,5.40
2019-02-16T04:10:35.422Z,5.60
2019-02-16T04:11:39.090Z,4.83
2019-02-16T04:12:42.755Z,4.63
2019-02-16T04:13:46.347Z,5.57
2019-02-16T04:14:49.880Z,5.50
2019-02-16T04:15:53.461Z,4.77
2019-02-16T04:16:56.975Z,5.50
2019-02-16T04:18:00.525Z,6.10
2019-02-16T04:19:04.093Z,4.83
2019-02-16T04:20:08.123Z,5.00
2019-02-16T04:21:11.646Z,4.80
2019-02-16T04:22:24.324Z,4.63
2019-02-16T04:23:20.545Z,4.80
2019-02-16T04:24:24.120Z,4.67
2019-02-16T04:25:27.765Z,4.77
2019-02-16T04:26:31.355Z,5.33
2019-02-16T04:27:34.881Z,5.57
2019-02-16T04:28:38.745Z,5.33
2019-02-16T04:29:42.347Z,5.43
2019-02-16T04:30:45.899Z,4.80
2019-02-16T04:31:49.466Z,5.20
2019-02-16T04:32:53.010Z,4.97
2019-02-16T04:33:56.500Z,5.10
2019-02-16T04:35:00.047Z,4.57
2019-02-16T04:36:03.564Z,4.30
2019-02-16T04:37:07.066Z,6.00
2019-02-16T04:38:10.563Z,5.73
2019-02-16T04:39:14.050Z,4.20
2019-02-16T04:40:17.532Z,4.10
2019-02-16T04:41:21.076Z,5.00
2019-02-16T04:42:24.733Z,4.80
2019-02-16T04:43:28.298Z,5.37
2019-02-16T04:44:31.809Z,5.30
2019-02-16T04:45:35.351Z,4.40
2019-02-16T04:46:38.954Z,4.40
2019-02-16T04:47:42.509Z,4.23
2019-02-16T04:48:46.002Z,4.60
2019-02-16T04:49:49.509Z,5.10
2019-02-16T04:50:53.017Z,4.70
2019-02-16T04:51:56.530Z,3.90
2019-02-16T04:53:00.050Z,4.53
2019-02-16T04:54:03.538Z,4.70
2019-02-16T04:55:08.125Z,4.40
2019-02-16T04:56:11.699Z,4.73
2019-02-16T04:57:15.358Z,4.10
2019-02-16T04:58:18.850Z,4.80
2019-02-16T04:59:22.344Z,4.23
2019-02-16T05:00:25.948Z,4.50
2019-02-16T05:01:29.517Z,4.20
2019-02-16T05:02:33.115Z,4.20
2019-02-16T05:03:36.632Z,3.70
2019-02-16T05:04:40.330Z,3.97
2019-02-16T05:05:43.978Z,4.23
2019-02-16T05:06:47.469Z,4.40
2019-02-16T05:07:51.068Z,4.10
2019-02-16T05:08:54.795Z,4.07
2019-02-16T05:09:58.409Z,4.20
2019-02-16T05:11:01.908Z,4.60
2019-02-16T05:12:05.410Z,4.20
2019-02-16T05:13:08.947Z,4.50
2019-02-16T05:14:12.455Z,4.00
2019-02-16T05:15:15.974Z,3.70
2019-02-16T05:16:19.534Z,4.27
2019-02-16T05:17:23.172Z,4.07
2019-02-16T05:18:26.724Z,4.10
2019-02-16T05:19:30.203Z,4.30
2019-02-16T05:20:33.700Z,3.80
2019-02-16T05:21:37.250Z,4.20
2019-02-16T05:22:44.581Z,3.57
2019-02-16T05:23:46.282Z,3.70
2019-02-16T05:24:49.766Z,4.33
2019-02-16T05:25:53.320Z,3.80
2019-02-16T05:26:56.872Z,4.40
2019-02-16T05:28:00.379Z,4.90
2019-02-16T05:29:03.957Z,4.03
2019-02-16T05:30:08.728Z,3.50
2019-02-16T05:31:12.218Z,4.10
2019-02-16T05:32:15.746Z,3.53
2019-02-16T05:33:19.243Z,3.50
2019-02-16T05:34:22.888Z,4.40
2019-02-16T05:35:26.471Z,3.93
2019-02-16T05:36:30.055Z,3.17
2019-02-16T05:37:33.626Z,3.60
2019-02-16T05:38:37.133Z,4.00
2019-02-16T05:39:40.653Z,3.93
2019-02-16T05:40:44.180Z,3.67
2019-02-16T05:41:47.733Z,3.73
2019-02-16T05:42:51.291Z,4.13
2019-02-16T05:43:54.875Z,4.00
2019-02-16T05:44:58.377Z,3.90
2019-02-16T05:46:01.886Z,3.80
2019-02-16T05:47:05.406Z,3.80
2019-02-16T05:48:08.954Z,3.77
2019-02-16T05:49:12.498Z,3.60
2019-02-16T05:50:16.084Z,3.33
2019-02-16T05:51:19.573Z,3.70
2019-02-16T05:52:23.150Z,3.20
2019-02-16T05:53:26.654Z,3.73
2019-02-16T05:54:30.166Z,3.47
2019-02-16T05:55:33.706Z,3.00
2019-02-16T05:56:37.281Z,3.40
2019-02-16T05:57:40.795Z,3.60
2019-02-16T05:58:44.280Z,3.17
2019-02-16T05:59:47.801Z,3.00
2019-02-16T06:00:51.330Z,3.57
2019-02-16T06:01:54.843Z,3.23
2019-02-16T06:02:58.363Z,3.37
2019-02-16T06:04:01.869Z,3.07
2019-02-16T06:05:06.290Z,3.37
2019-02-16T06:06:09.850Z,3.13
2019-02-16T06:07:13.349Z,3.30
2019-02-16T06:08:16.822Z,3.43
2019-02-16T06:09:20.317Z,3.77
2019-02-16T06:10:23.836Z,3.20
2019-02-16T06:11:27.390Z,4.00
2019-02-16T06:12:30.967Z,4.10
2019-02-16T06:13:34.542Z,3.60
2019-02-16T06:14:38.135Z,4.33
2019-02-16T06:15:41.659Z,4.10
2019-02-16T06:16:45.313Z,4.30
2019-02-16T06:17:48.901Z,3.87
2019-02-16T06:18:52.456Z,3.50
2019-02-16T06:19:55.984Z,4.30
2019-02-16T06:20:59.492Z,4.60
2019-02-16T06:22:03.146Z,4.03
2019-02-16T06:23:06.741Z,4.23
2019-02-16T06:24:10.289Z,4.40
2019-02-16T06:25:14.109Z,4.07
2019-02-16T06:26:17.691Z,4.90
2019-02-16T06:27:21.455Z,4.37
2019-02-16T06:28:25.052Z,4.77
2019-02-16T06:29:28.567Z,4.50
2019-02-16T06:30:32.094Z,4.43
2019-02-16T06:31:35.584Z,4.80
2019-02-16T06:32:39.216Z,5.10
2019-02-16T06:33:42.783Z,3.97
2019-02-16T06:34:46.531Z,4.73
2019-02-16T06:35:51.792Z,4.90
2019-02-16T06:36:55.282Z,4.70
2019-02-16T06:37:58.859Z,4.50
2019-02-16T06:39:02.377Z,4.17
2019-02-16T06:40:07.493Z,4.50
2019-02-16T06:41:11.003Z,4.87
2019-02-16T06:42:14.498Z,5.30
2019-02-16T06:43:18.156Z,4.97
2019-02-16T06:44:21.661Z,5.70
2019-02-16T06:45:25.223Z,5.03
2019-02-16T06:46:28.712Z,6.00
2019-02-16T06:47:32.227Z,6.50
2019-02-16T06:48:35.733Z,5.67
2019-02-16T06:49:39.243Z,5.80
2019-02-16T06:50:42.894Z,5.97
2019-02-16T06:51:46.397Z,5.60
2019-02-16T06:52:49.913Z,5.47
2019-02-16T06:53:53.486Z,5.60
2019-02-16T06:54:56.968Z,4.93
2019-02-16T06:56:02.103Z,4.93
2019-02-16T06:57:23.153Z,5.07
2019-02-16T06:58:26.645Z,5.30
2019-02-16T06:59:30.192Z,4.80
2019-02-16T07:00:33.682Z,4.10
2019-02-16T07:01:37.189Z,4.60
2019-02-16T07:02:40.743Z,4.67
2019-02-16T07:03:44.290Z,4.20
2019-02-16T07:04:47.847Z,5.07
2019-02-16T07:05:51.340Z,4.93
2019-02-16T07:06:54.959Z,4.30
2019-02-16T07:07:58.499Z,4.67
2019-02-16T07:09:02.047Z,4.40
2019-02-16T07:10:08.614Z,4.00
2019-02-16T07:11:12.104Z,4.40
2019-02-16T07:12:15.588Z,4.47
2019-02-16T07:13:19.093Z,4.03
2019-02-16T07:14:22.585Z,4.27
2019-02-16T07:15:26.190Z,3.80
2019-02-16T07:16:47.403Z,4.30
2019-02-16T07:17:52.515Z,3.93
2019-02-16T07:18:57.828Z,3.73
2019-02-16T07:20:01.457Z,4.20
2019-02-16T07:21:05.037Z,4.60
2019-02-16T07:22:08.620Z,3.40
2019-02-16T07:23:12.102Z,4.03
2019-02-16T07:24:15.684Z,3.30
2019-02-16T07:25:19.259Z,3.80
2019-02-16T07:26:22.842Z,3.47
2019-02-16T07:27:26.347Z,3.40
2019-02-16T07:28:29.830Z,3.90
2019-02-16T07:29:33.395Z,3.87
2019-02-16T07:30:36.928Z,3.70
2019-02-16T07:31:40.415Z,3.63
2019-02-16T07:32:43.957Z,3.40
2019-02-16T07:33:47.459Z,3.57
2019-02-16T07:34:51.005Z,3.60
2019-02-16T07:35:54.604Z,3.30
2019-02-16T07:36:58.165Z,3.33
2019-02-16T07:38:01.647Z,3.30
2019-02-16T07:39:06.099Z,3.60
2019-02-16T07:40:09.641Z,3.50
2019-02-16T07:41:13.147Z,3.50
2019-02-16T07:42:16.661Z,3.23
2019-02-16T07:43:24.493Z,3.37
2019-02-16T07:44:47.266Z,2.80
2019-02-16T07:45:52.410Z,3.03
2019-02-16T07:46:57.539Z,3.37
2019-02-16T07:48:05.428Z,3.40
2019-02-16T07:49:16.358Z,3.77
2019-02-16T07:50:36.069Z,3.23
2019-02-16T07:51:46.827Z,3.20
2019-02-16T07:52:52.072Z,3.20
2019-02-16T07:53:57.200Z,3.17
2019-02-16T07:55:02.412Z,3.17
2019-02-16T07:56:10.256Z,3.17
2019-02-16T07:57:15.391Z,2.90
2019-02-16T07:58:20.553Z,3.20
2019-02-16T07:59:43.300Z,3.07
2019-02-16T08:00:48.449Z,2.70
2019-02-16T08:01:56.841Z,2.70
2019-02-16T08:03:10.860Z,2.90
2019-02-16T08:04:21.721Z,3.90
2019-02-16T08:05:41.603Z,3.10
2019-02-16T08:06:46.754Z,2.93
2019-02-16T08:07:54.407Z,2.87
2019-02-16T08:08:59.537Z,3.60
2019-02-16T08:10:04.754Z,3.27
2019-02-16T08:11:15.475Z,2.73
2019-02-16T08:12:23.295Z,2.90
2019-02-16T08:13:31.382Z,2.90
2019-02-16T08:14:52.206Z,3.63
2019-02-16T08:16:06.034Z,3.00
2019-02-16T08:17:11.227Z,3.37
2019-02-16T08:18:16.373Z,2.80
2019-02-16T08:19:23.027Z,2.90
2019-02-16T08:20:33.741Z,2.97
2019-02-16T08:21:47.539Z,3.03
2019-02-16T08:22:55.106Z,3.20
2019-02-16T08:24:05.681Z,3.13
2019-02-16T08:25:10.910Z,2.30
2019-02-16T08:26:16.124Z,3.07
2019-02-16T08:27:23.784Z,2.90
2019-02-16T08:28:37.879Z,2.77
2019-02-16T08:29:59.312Z,2.70
2019-02-16T08:31:04.476Z,2.87
2019-02-16T08:32:09.611Z,2.77
2019-02-16T08:33:20.618Z,3.00
2019-02-16T08:34:25.748Z,2.80
2019-02-16T08:35:33.706Z,2.80
2019-02-16T08:36:38.855Z,2.97
2019-02-16T08:37:59.973Z,3.07
2019-02-16T08:39:05.094Z,3.20
2019-02-16T08:40:16.301Z,3.20
2019-02-16T08:41:21.439Z,2.53
2019-02-16T08:42:29.345Z,2.97
2019-02-16T08:43:34.484Z,2.70
2019-02-16T08:44:42.715Z,2.40
2019-02-16T08:45:50.340Z,2.80
2019-02-16T08:46:55.497Z,2.93
2019-02-16T08:48:00.713Z,2.77
2019-02-16T08:49:11.414Z,2.80
2019-02-16T08:50:25.338Z,2.60
2019-02-16T08:51:30.470Z,2.97
2019-02-16T08:52:35.710Z,2.60
2019-02-16T08:53:58.465Z,2.80
2019-02-16T08:55:06.192Z,2.83
2019-02-16T08:56:17.301Z,2.50
2019-02-16T08:57:40.532Z,2.60
2019-02-16T08:58:54.854Z,3.00
2019-02-16T09:00:11.722Z,2.87
2019-02-16T09:01:32.619Z,2.47
2019-02-16T09:02:40.749Z,2.57
2019-02-16T09:04:01.556Z,2.50
2019-02-16T09:05:07.619Z,2.57
2019-02-16T09:06:29.006Z,2.20
2019-02-16T09:07:43.164Z,3.33
2019-02-16T09:09:04.260Z,3.20
2019-02-16T09:10:15.470Z,2.40
2019-02-16T09:11:38.594Z,2.67
2019-02-16T09:12:56.248Z,2.40
2019-02-16T09:14:09.848Z,3.13
2019-02-16T09:15:23.979Z,2.57
2019-02-16T09:16:37.852Z,2.47
2019-02-16T09:17:47.487Z,2.60
2019-02-16T09:18:52.639Z,2.70
2019-02-16T09:20:00.527Z,2.30
2019-02-16T09:21:15.258Z,2.93
2019-02-16T09:22:25.913Z,2.63
2019-02-16T09:23:39.667Z,2.37
2019-02-16T09:24:44.785Z,2.53
2019-02-16T09:26:01.817Z,2.63
2019-02-16T09:27:10.662Z,2.70
2019-02-16T09:28:31.689Z,2.70
2019-02-16T09:29:42.375Z,2.20
2019-02-16T09:30:50.234Z,2.90
2019-02-16T09:32:01.294Z,2.40
2019-02-16T09:33:06.482Z,2.70
2019-02-16T09:34:29.208Z,2.50
2019-02-16T09:35:43.307Z,2.40
2019-02-16T09:36:54.567Z,2.40
2019-02-16T09:38:11.706Z,2.33
2019-02-16T09:39:22.579Z,2.57
2019-02-16T09:40:43.330Z,2.43
2019-02-16T09:41:51.301Z,2.10
2019-02-16T09:43:14.034Z,2.47
2019-02-16T09:44:21.855Z,2.40
2019-02-16T09:45:32.813Z,2.70
2019-02-16T09:46:38.036Z,2.77
2019-02-16T09:47:43.325Z,2.40
2019-02-16T09:49:00.633Z,2.13
2019-02-16T09:50:13.288Z,2.83
2019-02-16T09:51:20.820Z,2.43
2019-02-16T09:52:34.923Z,2.47
2019-02-16T09:53:48.969Z,2.23
2019-02-16T09:54:54.108Z,2.43
2019-02-16T09:55:59.267Z,2.47
2019-02-16T09:57:20.275Z,2.30
2019-02-16T09:58:25.432Z,2.80
2019-02-16T09:59:42.217Z,2.50
2019-02-16T10:00:47.459Z,2.57
2019-02-16T10:02:04.536Z,2.60
2019-02-16T10:03:15.861Z,2.50
2019-02-16T10:04:26.948Z,2.33
2019-02-16T10:05:35.184Z,2.33
2019-02-16T10:06:55.992Z,2.70
2019-02-16T10:08:01.216Z,2.17
2019-02-16T10:09:11.192Z,2.60
2019-02-16T10:10:16.311Z,2.40
2019-02-16T10:11:21.467Z,2.80
2019-02-16T10:12:26.657Z,2.10
2019-02-16T10:13:37.740Z,1.90
2019-02-16T10:14:58.768Z,2.10
2019-02-16T10:16:20.194Z,2.20
2019-02-16T10:17:26.168Z,2.23
2019-02-16T10:18:37.226Z,2.50
2019-02-16T10:19:44.818Z,2.40
2019-02-16T10:20:52.985Z,2.20
2019-02-16T10:22:00.521Z,2.50
2019-02-16T10:23:21.397Z,2.60
2019-02-16T10:24:26.528Z,2.30
2019-02-16T10:25:40.377Z,2.40
2019-02-16T10:26:54.412Z,2.20
2019-02-16T10:27:59.606Z,2.27
2019-02-16T10:29:07.494Z,1.97
2019-02-16T10:30:18.276Z,2.37
2019-02-16T10:31:26.425Z,2.27
2019-02-16T10:32:37.660Z,2.60
2019-02-16T10:33:42.870Z,2.20
2019-02-16T10:34:50.713Z,2.17
2019-02-16T10:35:58.642Z,2.10
2019-02-16T10:37:21.428Z,2.07
2019-02-16T10:38:44.475Z,2.17
2019-02-16T10:39:55.306Z,2.53
2019-02-16T10:41:09.430Z,2.27
2019-02-16T10:42:26.179Z,2.23
2019-02-16T10:43:31.326Z,2.23
2019-02-16T10:44:42.551Z,1.93
2019-02-16T10:46:03.646Z,2.57
2019-02-16T10:47:08.921Z,2.20
2019-02-16T10:48:16.819Z,2.10
2019-02-16T10:49:27.397Z,2.30
2019-02-16T10:50:44.542Z,2.27
2019-02-16T10:52:05.410Z,2.37
2019-02-16T10:53:16.578Z,2.50
2019-02-16T10:54:28.024Z,2.13
2019-02-16T10:55:49.545Z,2.20
2019-02-16T10:56:54.829Z,2.87
2019-02-16T10:58:00.068Z,2.50
2019-02-16T10:59:23.308Z,2.40
2019-02-16T11:00:44.767Z,2.50
2019-02-16T11:01:52.714Z,2.30
2019-02-16T11:03:03.783Z,2.53
2019-02-16T11:04:09.208Z,2.00
2019-02-16T11:05:29.268Z,2.30
2019-02-16T11:06:40.431Z,2.10
2019-02-16T11:07:48.558Z,2.30
2019-02-16T11:09:09.012Z,2.43
2019-02-16T11:10:30.798Z,2.27
2019-02-16T11:11:47.751Z,2.43
2019-02-16T11:13:01.745Z,2.40
2019-02-16T11:14:22.769Z,2.23
2019-02-16T11:15:27.931Z,2.20
2019-02-16T11:16:36.077Z,2.43
2019-02-16T11:17:41.192Z,2.30
2019-02-16T11:18:46.375Z,2.23
2019-02-16T11:19:51.612Z,2.30
2019-02-16T11:20:59.515Z,2.20
2019-02-16T11:22:04.812Z,2.27
2019-02-16T11:23:13.000Z,2.30
2019-02-16T11:24:36.406Z,1.90
2019-02-16T11:25:47.375Z,2.03
2019-02-16T11:27:01.202Z,1.90
2019-02-16T11:28:15.057Z,2.30
2019-02-16T11:29:20.177Z,2.47
2019-02-16T11:30:25.391Z,2.50
2019-02-16T11:31:32.940Z,2.03
2019-02-16T11:32:43.880Z,2.13
2019-02-16T11:33:58.034Z,2.43
2019-02-16T11:35:14.990Z,1.80
2019-02-16T11:36:36.301Z,2.23
2019-02-16T11:37:41.446Z,2.03
2019-02-16T11:38:46.634Z,1.93
2019-02-16T11:40:03.904Z,2.37
2019-02-16T11:41:18.280Z,1.90
2019-02-16T11:42:30.977Z,1.80
2019-02-16T11:43:36.144Z,2.17
2019-02-16T11:44:50.314Z,2.40
2019-02-16T11:46:10.320Z,2.30
2019-02-16T11:47:15.455Z,2.20
2019-02-16T11:48:20.658Z,2.00
2019-02-16T11:49:28.878Z,2.07
2019-02-16T11:50:39.827Z,1.83
2019-02-16T11:51:47.833Z,2.40
2019-02-16T11:53:08.920Z,2.33
2019-02-16T11:54:23.116Z,2.50
2019-02-16T11:55:30.964Z,1.93
2019-02-16T11:56:44.959Z,2.27
2019-02-16T11:57:50.093Z,2.30
2019-02-16T11:59:02.723Z,2.40
2019-02-16T12:00:27.174Z,2.00
2019-02-16T12:01:32.383Z,2.20
2019-02-16T12:02:39.739Z,2.10
2019-02-16T12:03:47.270Z,2.50
2019-02-16T12:04:52.531Z,2.23
2019-02-16T12:06:06.832Z,1.83
2019-02-16T12:07:12.100Z,2.23
2019-02-16T12:08:17.411Z,2.40
2019-02-16T12:09:22.534Z,1.83
2019-02-16T12:10:30.343Z,2.47
2019-02-16T12:11:47.141Z,2.40
2019-02-16T12:13:08.434Z,2.17
2019-02-16T12:14:29.676Z,2.00
2019-02-16T12:15:37.546Z,2.20
2019-02-16T12:16:42.681Z,2.50
2019-02-16T12:17:53.676Z,2.00
2019-02-16T12:19:04.273Z,2.20
2019-02-16T12:20:33.510Z,2.10
2019-02-16T12:21:37.955Z,2.10
2019-02-16T12:22:45.873Z,2.27
2019-02-16T12:23:51.076Z,2.07
2019-02-16T12:25:05.364Z,2.20
2019-02-16T12:26:18.930Z,2.40
2019-02-16T12:27:38.719Z,1.80
2019-02-16T12:28:44.128Z,2.10
2019-02-16T12:29:52.267Z,2.17
2019-02-16T12:31:03.773Z,2.27
2019-02-16T12:32:25.144Z,2.37
2019-02-16T12:33:41.819Z,2.17
2019-02-16T12:34:52.852Z,2.10
2019-02-16T12:36:07.242Z,1.90
2019-02-16T12:38:48.123Z,2.17
2019-02-16T12:39:58.864Z,1.93
2019-02-16T12:41:10.205Z,2.23
2019-02-16T12:42:21.422Z,2.43
2019-02-16T12:43:32.170Z,2.10
2019-02-16T12:44:40.174Z,1.83
2019-02-16T12:45:51.176Z,2.30
2019-02-16T12:46:52.404Z,2.30
2019-02-16T12:48:03.277Z,2.10
2019-02-16T12:49:08.428Z,2.77
2019-02-16T12:50:31.930Z,2.40
2019-02-16T12:51:52.659Z,2.00
2019-02-16T12:53:13.971Z,2.20
2019-02-16T12:54:28.214Z,2.00
2019-02-16T12:55:39.576Z,2.23
2019-02-16T12:56:45.309Z,2.43
2019-02-16T12:57:50.422Z,2.40
2019-02-16T12:59:13.742Z,2.13
2019-02-16T13:00:18.985Z,2.60
2019-02-16T13:01:24.170Z,2.57
2019-02-16T13:02:38.486Z,2.10
2019-02-16T13:03:43.708Z,2.50
2019-02-16T13:05:00.427Z,2.50
2019-02-16T13:06:21.414Z,2.60
2019-02-16T13:07:26.556Z,2.40
2019-02-16T13:08:37.501Z,2.57
2019-02-16T13:09:45.753Z,2.53
2019-02-16T13:10:53.587Z,2.50
2019-02-16T13:12:14.733Z,2.33
2019-02-16T13:13:22.596Z,2.47
2019-02-16T13:14:27.767Z,2.73
2019-02-16T13:15:33.016Z,2.30
2019-02-16T13:16:53.085Z,2.00
2019-02-16T13:18:14.856Z,2.53
2019-02-16T13:19:23.148Z,2.50
2019-02-16T13:20:28.261Z,2.33
2019-02-16T13:21:35.891Z,2.03
2019-02-16T13:22:46.748Z,2.87
2019-02-16T13:23:51.955Z,2.80
2019-02-16T13:24:57.114Z,2.43
2019-02-16T13:26:04.786Z,2.57
2019-02-16T13:27:18.689Z,2.43
2019-02-16T13:28:40.152Z,3.00
2019-02-16T13:29:53.775Z,2.50
2019-02-16T13:31:04.521Z,3.00
2019-02-16T13:32:21.506Z,2.93
2019-02-16T13:33:26.654Z,2.60
2019-02-16T13:34:40.731Z,2.50
2019-02-16T13:35:58.398Z,2.77
2019-02-16T13:37:06.282Z,2.40
2019-02-16T13:38:17.194Z,3.07
2019-02-16T13:39:22.420Z,2.47
2019-02-16T13:40:30.323Z,2.50
2019-02-16T13:41:35.514Z,2.40
2019-02-16T13:42:40.680Z,2.53
2019-02-16T13:43:51.617Z,3.00
2019-02-16T13:44:56.766Z,2.57
2019-02-16T13:46:01.997Z,2.60
2019-02-16T13:47:07.124Z,2.77
2019-02-16T13:48:12.244Z,2.93
2019-02-16T13:49:17.428Z,3.10
2019-02-16T13:50:25.647Z,3.03
2019-02-16T13:51:30.871Z,3.10
2019-02-16T13:52:41.843Z,2.63
2019-02-16T13:53:47.041Z,2.50
2019-02-16T13:54:52.233Z,2.80
2019-02-16T13:56:03.246Z,2.87
2019-02-16T13:57:11.017Z,2.93
2019-02-16T13:58:22.291Z,2.63
2019-02-16T13:59:33.203Z,3.17
2019-02-16T14:00:38.396Z,2.93
2019-02-16T14:01:43.541Z,3.20
2019-02-16T14:03:06.357Z,3.30
2019-02-16T14:04:20.233Z,2.70
2019-02-16T14:05:25.381Z,3.00
2019-02-16T14:06:33.211Z,3.57
2019-02-16T14:07:40.893Z,3.00
2019-02-16T14:08:48.974Z,3.40
2019-02-16T14:10:02.702Z,3.13
2019-02-16T14:11:19.824Z,3.20
2019-02-16T14:12:30.648Z,3.17
2019-02-16T14:13:38.272Z,3.00
2019-02-16T14:14:46.411Z,3.30
2019-02-16T14:16:00.561Z,3.30
2019-02-16T14:17:17.597Z,3.20
2019-02-16T14:18:21.200Z,3.20
2019-02-16T14:19:24.813Z,2.93
2019-02-16T14:20:28.468Z,3.30
2019-02-16T14:21:32.250Z,3.00
2019-02-16T14:22:36.199Z,2.80
2019-02-16T14:23:39.920Z,3.50
2019-02-16T14:24:45.001Z,3.43
2019-02-16T14:25:48.538Z,3.40
2019-02-16T14:26:52.037Z,3.20
2019-02-16T14:27:55.609Z,3.23
2019-02-16T14:28:59.104Z,4.00
2019-02-16T14:30:02.675Z,3.20
2019-02-16T14:31:06.402Z,3.30
2019-02-16T14:32:09.983Z,3.80
2019-02-16T14:33:13.466Z,3.97
2019-02-16T14:34:17.062Z,3.57
2019-02-16T14:35:20.613Z,3.83
2019-02-16T14:36:24.144Z,4.03
2019-02-16T14:37:29.304Z,3.20
2019-02-16T14:38:34.517Z,3.30
2019-02-16T14:39:38.682Z,3.33
2019-02-16T14:40:42.372Z,3.83
2019-02-16T14:41:45.916Z,3.87
2019-02-16T14:42:49.478Z,3.53
2019-02-16T14:43:52.980Z,4.20
2019-02-16T14:44:56.469Z,3.30
2019-02-16T14:46:00.160Z,4.23
2019-02-16T14:47:03.691Z,5.07
2019-02-16T14:48:07.180Z,4.33
2019-02-16T14:49:10.737Z,4.40
2019-02-16T14:50:14.318Z,4.30
2019-02-16T14:51:17.818Z,4.93
2019-02-16T14:52:21.330Z,4.97
2019-02-16T14:53:24.897Z,5.17